createdAt,value
2023-03-12T00:01:33.590Z,5.39
2023-03-12T00:05:36.379Z,5.44
2023-03-12T00:09:35.410Z,5.46
2023-03-12T00:13:33.353Z,5.50
2023-03-12T00:17:33.318Z,5.49
2023-03-12T00:21:33.406Z,5.50
2023-03-12T00:25:33.358Z,5.53
2023-03-12T00:37:33.564Z,5.54
2023-03-12T00:41:33.699Z,5.61
2023-03-12T00:45:33.731Z,5.63
2023-03-12T00:49:33.423Z,5.67
2023-03-12T00:53:33.790Z,5.74
2023-03-12T00:57:33.496Z,5.75
2023-03-12T01:01:33.564Z,5.73
2023-03-12T01:05:36.707Z,5.77
2023-03-12T01:13:33.529Z,5.79
2023-03-12T01:17:33.565Z,5.81
2023-03-12T01:21:33.500Z,5.84
2023-03-12T01:25:34.935Z,5.86
2023-03-12T01:29:33.509Z,5.88
2023-03-12T01:33:33.586Z,5.95
2023-03-12T01:37:33.719Z,5.97
2023-03-12T01:41:33.596Z,6.02
2023-03-12T01:45:53.326Z,6.07
2023-03-12T01:53:33.761Z,6.09
2023-03-12T01:57:36.349Z,6.11
2023-03-12T02:01:34.272Z,6.09
2023-03-12T02:09:37.726Z,6.12
2023-03-12T02:13:33.647Z,6.10
2023-03-12T02:17:35.290Z,6.12
2023-03-12T02:21:36.174Z,6.14
2023-03-12T02:25:37.497Z,6.17
2023-03-12T02:29:36.606Z,6.18
2023-03-12T02:37:33.727Z,6.19
2023-03-12T02:41:37.378Z,6.21
2023-03-12T02:45:35.130Z,6.25
2023-03-12T02:49:34.635Z,6.29
2023-03-12T02:53:33.872Z,6.33
2023-03-12T02:57:36.536Z,6.34
2023-03-12T03:01:34.321Z,6.39
2023-03-12T03:05:36.127Z,6.44
2023-03-12T03:09:33.826Z,6.47
2023-03-12T03:13:34.329Z,6.52
2023-03-12T03:17:34.039Z,6.49
2023-03-12T03:33:35.767Z,6.47
2023-03-12T03:41:34.244Z,6.46
2023-03-12T03:45:33.949Z,6.41
2023-03-12T03:53:34.146Z,6.36
2023-03-12T03:57:33.912Z,6.33
2023-03-12T04:01:33.924Z,6.30
2023-03-12T04:05:33.970Z,6.33
2023-03-12T04:09:34.063Z,6.38
2023-03-12T04:13:34.001Z,6.40
2023-03-12T04:17:34.132Z,6.42
2023-03-12T04:21:33.973Z,6.45
2023-03-12T04:25:34.503Z,6.48
2023-03-12T04:29:33.985Z,6.52
2023-03-12T04:37:34.026Z,6.54
2023-03-12T04:41:35.039Z,6.52
2023-03-12T04:49:34.152Z,6.51
2023-03-12T04:53:34.319Z,6.48
2023-03-12T04:57:34.473Z,6.45
2023-03-12T05:05:34.820Z,6.47
2023-03-12T05:09:34.190Z,6.49
2023-03-12T05:17:34.239Z,6.53
2023-03-12T05:21:34.432Z,6.55
2023-03-12T05:25:38.415Z,6.59
2023-03-12T05:29:34.557Z,6.63
2023-03-12T05:33:34.185Z,6.69
2023-03-12T05:37:34.167Z,6.72
2023-03-12T05:41:34.419Z,6.75
2023-03-12T05:49:34.483Z,6.79
2023-03-12T05:53:34.406Z,6.85
2023-03-12T05:57:34.258Z,6.89
2023-03-12T06:05:35.260Z,6.93
2023-03-12T06:09:34.814Z,6.95
2023-03-12T06:13:34.718Z,6.97
2023-03-12T06:17:34.264Z,7.02
2023-03-12T06:21:35.160Z,7.03
2023-03-12T06:25:34.363Z,7.05
2023-03-12T06:33:34.869Z,7.03
2023-03-12T06:37:34.457Z,6.99
2023-03-12T06:45:34.452Z,7.01
2023-03-12T06:53:34.781Z,7.02
2023-03-12T07:01:34.592Z,7.03
2023-03-12T07:05:34.615Z,7.02
2023-03-12T07:09:34.601Z,7.06
2023-03-12T07:13:34.803Z,7.09
2023-03-12T07:17:34.870Z,7.12
2023-03-12T07:21:34.467Z,7.15
2023-03-12T07:25:35.870Z,7.16
2023-03-12T07:29:34.797Z,7.19
2023-03-12T07:33:34.989Z,7.22
2023-03-12T07:37:34.517Z,7.25
2023-03-12T07:41:36.434Z,7.28
2023-03-12T07:45:34.518Z,7.32
2023-03-12T07:49:34.717Z,7.33
2023-03-12T07:53:34.628Z,7.37
2023-03-12T07:57:35.040Z,7.40
2023-03-12T08:01:34.648Z,7.45
2023-03-12T08:05:34.722Z,7.52
2023-03-12T08:09:34.784Z,7.61
2023-03-12T08:13:35.021Z,7.69
2023-03-12T08:21:34.706Z,7.73
2023-03-12T08:25:35.802Z,7.74
2023-03-12T08:29:34.751Z,7.80
2023-03-12T08:33:34.941Z,7.83
2023-03-12T08:37:35.151Z,7.89
2023-03-12T08:41:34.660Z,7.93
2023-03-12T08:45:35.518Z,7.99
2023-03-12T08:49:34.666Z,8.06
2023-03-12T08:53:35.971Z,8.10
2023-03-12T08:57:34.743Z,8.17
2023-03-12T09:01:35.078Z,8.21
2023-03-12T09:05:34.803Z,8.25
2023-03-12T09:09:35.325Z,8.30
2023-03-12T09:13:54.939Z,8.34
2023-03-12T09:17:35.003Z,8.39
2023-03-12T09:21:34.745Z,8.45
2023-03-12T09:25:34.923Z,8.48
2023-03-12T09:29:37.985Z,8.50
2023-03-12T09:33:35.152Z,8.55
2023-03-12T09:37:34.893Z,8.58
2023-03-12T09:41:38.373Z,8.63
2023-03-12T09:45:37.716Z,8.68
2023-03-12T09:49:39.846Z,8.72
2023-03-12T09:53:40.186Z,8.74
2023-03-12T09:57:35.110Z,8.78
2023-03-12T10:01:40.900Z,8.82
2023-03-12T10:05:39.685Z,8.91
2023-03-12T10:09:45.107Z,8.99
2023-03-12T10:13:46.512Z,9.07
2023-03-12T10:17:45.534Z,9.11
2023-03-12T10:21:44.609Z,9.13
2023-03-12T10:25:41.321Z,9.22
2023-03-12T10:29:41.525Z,9.33
2023-03-12T10:33:43.850Z,9.39
2023-03-12T10:37:39.709Z,9.43
2023-03-12T10:41:35.641Z,9.49
2023-03-12T10:45:41.043Z,9.56
2023-03-12T10:49:36.223Z,9.62
2023-03-12T10:53:36.476Z,9.74
2023-03-12T10:57:39.831Z,9.86
2023-03-12T11:01:37.411Z,9.97
2023-03-12T11:05:44.646Z,10.05
2023-03-12T11:09:35.258Z,10.07
2023-03-12T11:13:37.107Z,10.11
2023-03-12T11:17:35.232Z,10.21
2023-03-12T11:21:37.247Z,10.25
2023-03-12T11:25:35.305Z,10.35
2023-03-12T11:29:39.021Z,10.44
2023-03-12T11:33:35.430Z,10.51
2023-03-12T11:37:45.390Z,10.59
2023-03-12T11:41:44.731Z,10.61
2023-03-12T11:45:44.839Z,10.55
2023-03-12T11:49:49.692Z,10.54
2023-03-12T11:53:48.976Z,10.57
2023-03-12T11:57:46.721Z,10.60
2023-03-12T12:01:49.471Z,10.65
2023-03-12T12:09:43.856Z,10.61
2023-03-12T12:13:44.700Z,10.58
2023-03-12T12:17:50.692Z,10.53
2023-03-12T12:25:48.843Z,10.59
2023-03-12T12:29:51.554Z,10.61
2023-03-12T12:33:49.803Z,10.69
2023-03-12T12:37:42.547Z,10.73
2023-03-12T12:41:39.370Z,10.74
2023-03-12T12:45:38.770Z,10.77
2023-03-12T12:49:42.842Z,10.82
2023-03-12T12:53:43.014Z,10.96
2023-03-12T12:57:39.839Z,11.01
2023-03-12T13:01:36.970Z,11.08
2023-03-12T13:05:49.301Z,11.13
2023-03-12T13:17:55.263Z,11.20
2023-03-12T13:21:39.487Z,11.26
2023-03-12T13:25:50.167Z,11.29
2023-03-12T13:29:38.705Z,11.38
2023-03-12T13:33:39.975Z,11.45
2023-03-12T13:37:55.815Z,11.51
2023-03-12T13:41:37.608Z,11.55
2023-03-12T13:45:49.612Z,11.62
2023-03-12T13:49:40.982Z,11.63
2023-03-12T13:53:40.477Z,11.69
2023-03-12T13:57:39.826Z,11.78
2023-03-12T14:01:40.226Z,11.84
2023-03-12T14:05:44.901Z,11.90
2023-03-12T14:09:43.870Z,11.94
2023-03-12T14:13:51.634Z,11.96
2023-03-12T14:17:37.304Z,11.99
2023-03-12T14:21:40.160Z,12.05
2023-03-12T14:25:38.753Z,12.12
2023-03-12T14:29:37.978Z,12.16
2023-03-12T14:33:49.522Z,12.12
2023-03-12T14:37:40.447Z,12.10
2023-03-12T14:41:41.413Z,12.09
2023-03-12T14:45:39.072Z,12.00
2023-03-12T14:49:39.748Z,11.95
2023-03-12T14:53:37.175Z,11.90
2023-03-12T14:57:35.830Z,11.91
2023-03-12T15:05:36.042Z,11.85
2023-03-12T15:09:36.240Z,11.83
2023-03-12T15:13:37.016Z,11.75
2023-03-12T15:17:36.556Z,11.70
2023-03-12T15:21:36.167Z,11.66
2023-03-12T15:25:35.905Z,11.61
2023-03-12T15:29:40.788Z,11.59
2023-03-12T15:33:35.827Z,11.51
2023-03-12T15:37:37.208Z,11.44
2023-03-12T15:41:42.094Z,11.38
2023-03-12T15:45:38.235Z,11.42
2023-03-12T15:49:37.211Z,11.56
2023-03-12T15:53:35.967Z,11.65
2023-03-12T16:01:45.997Z,11.55
2023-03-12T16:05:38.914Z,11.49
2023-03-12T16:09:36.223Z,11.43
2023-03-12T16:13:36.353Z,11.40
2023-03-12T16:17:36.113Z,11.29
2023-03-12T16:21:36.034Z,11.27
2023-03-12T16:29:38.875Z,11.18
2023-03-12T16:33:36.060Z,11.13
2023-03-12T16:37:36.125Z,11.10
2023-03-12T16:41:36.125Z,11.08
2023-03-12T16:45:36.746Z,11.05
2023-03-12T16:53:36.246Z,10.95
2023-03-12T16:57:38.785Z,10.90
2023-03-12T17:01:36.366Z,10.89
2023-03-12T17:05:36.047Z,10.85
2023-03-12T17:13:36.175Z,10.84
2023-03-12T17:17:36.125Z,10.79
2023-03-12T17:21:36.797Z,10.76
2023-03-12T17:25:38.813Z,10.73
2023-03-12T17:29:36.272Z,10.68
2023-03-12T17:33:37.231Z,10.64
2023-03-12T17:41:36.446Z,10.65
2023-03-12T17:45:36.331Z,10.63
2023-03-12T17:49:36.507Z,10.60
2023-03-12T17:53:38.464Z,10.55
2023-03-12T17:57:36.827Z,10.48
2023-03-12T18:01:36.309Z,10.37
2023-03-12T18:05:37.501Z,10.31
2023-03-12T18:09:36.231Z,10.29
2023-03-12T18:13:36.369Z,10.25
2023-03-12T18:17:36.363Z,10.27
2023-03-12T18:21:36.385Z,10.22
2023-03-12T18:25:37.032Z,10.21
2023-03-12T18:29:36.476Z,10.23
2023-03-12T18:33:37.042Z,10.25
2023-03-12T18:37:36.386Z,10.30
2023-03-12T18:45:39.943Z,10.32
2023-03-12T18:49:36.365Z,10.29
2023-03-12T18:53:36.456Z,10.25
2023-03-12T18:57:36.309Z,10.29
2023-03-12T19:01:36.655Z,10.28
2023-03-12T19:05:36.524Z,10.21
2023-03-12T19:09:36.424Z,10.22
2023-03-12T19:13:36.783Z,10.24
2023-03-12T19:17:36.603Z,10.26
2023-03-12T19:25:36.753Z,10.28
2023-03-12T19:33:37.134Z,10.30
2023-03-12T19:37:36.827Z,10.28
2023-03-12T19:41:36.641Z,10.33
2023-03-12T19:49:36.772Z,10.34
2023-03-12T19:53:37.038Z,10.31
2023-03-12T19:57:37.501Z,10.30
2023-03-12T20:05:36.683Z,10.28
2023-03-12T20:09:36.632Z,10.29
2023-03-12T20:13:37.739Z,10.31
2023-03-12T20:17:36.675Z,10.32
2023-03-12T20:21:36.871Z,10.30
2023-03-12T20:25:38.814Z,10.33
2023-03-12T20:33:37.394Z,10.36
2023-03-12T20:37:36.653Z,10.37
2023-03-12T20:41:36.679Z,10.34
2023-03-12T20:49:36.758Z,10.30
2023-03-12T20:53:36.738Z,10.32
2023-03-12T20:57:36.763Z,10.31
2023-03-12T21:01:37.219Z,10.30
2023-03-12T21:05:36.768Z,10.29
2023-03-12T21:09:36.991Z,10.31
2023-03-12T21:13:36.792Z,10.34
2023-03-12T21:17:38.780Z,10.36
2023-03-12T21:25:39.177Z,10.40
2023-03-12T21:29:36.790Z,10.39
2023-03-12T21:33:37.334Z,10.42
2023-03-12T21:37:36.808Z,10.45
2023-03-12T21:41:37.356Z,10.42
2023-03-12T21:45:39.273Z,10.44
2023-03-12T21:49:37.090Z,10.48
2023-03-12T21:53:37.548Z,10.49
2023-03-12T21:57:37.062Z,10.46
2023-03-12T22:09:36.955Z,10.47
2023-03-12T22:17:37.028Z,10.49
2023-03-12T22:21:37.350Z,10.50
2023-03-12T22:25:36.909Z,10.52
2023-03-12T22:29:36.924Z,10.53
2023-03-12T22:33:37.223Z,10.56
2023-03-12T22:37:36.984Z,10.58
2023-03-12T22:41:37.170Z,10.60
2023-03-12T22:45:36.991Z,10.61
2023-03-12T22:53:37.653Z,10.65
2023-03-12T22:57:37.506Z,10.69
2023-03-12T23:01:37.358Z,10.70
2023-03-12T23:05:37.018Z,10.68
2023-03-12T23:09:37.209Z,10.73
2023-03-12T23:13:40.362Z,10.78
2023-03-12T23:17:37.343Z,10.82
2023-03-12T23:21:37.091Z,10.81
2023-03-12T23:25:37.383Z,10.85
2023-03-12T23:29:37.148Z,10.89
2023-03-12T23:33:37.284Z,10.93
2023-03-12T23:37:37.128Z,10.95
2023-03-12T23:41:37.585Z,11.01
2023-03-12T23:45:37.149Z,11.03
2023-03-12T23:49:37.239Z,11.02
2023-03-12T23:53:38.652Z,11.05
2023-03-12T23:57:37.390Z,11.07
